Time;durP1;ratioP1;P1;durP2;ratioP2;P2;SDS_P1;SDS_P2;PMS_P1;PMS_P2;Temp;Humidity;BMP_temperature;BMP_pressure;BME280_temperature;BME280_humidity;BME280_pressure;Samples;Min_cycle;Max_cycle;Signal;HPM_P1;HPM_P2
2021/11/06 07:34:05;;;;;;;;;41.50;36.50;;;;;4.87;69.91;102842.44;5158445;23;45327;-81
2021/11/06 07:36:30;;;;;;;;;38.75;35.75;;;;;4.93;70.11;102843.06;4957275;28;45448;-82
2021/11/06 07:38:55;;;;;;;;;43.25;34.75;;;;;4.97;69.87;102844.31;4986302;28;71409;-82
2021/11/06 07:41:21;;;;;;;;;42.50;37.25;;;;;5.03;70.94;102838.03;4993327;28;45313;-82
2021/11/06 07:43:47;;;;;;;;;40.50;38.00;;;;;5.15;70.48;102845.25;4989878;28;45417;-82
2021/11/06 07:46:13;;;;;;;;;43.75;39.25;;;;;5.18;70.31;102832.53;4972692;28;45581;-81
2021/11/06 07:48:39;;;;;;;;;39.00;36.25;;;;;5.29;70.26;102848.31;4988003;28;45806;-82
2021/11/06 07:51:04;;;;;;;;;49.75;41.00;;;;;5.35;70.26;102854.16;4989484;28;45450;-81
2021/11/06 07:53:29;;;;;;;;;46.25;36.00;;;;;5.41;70.50;102849.56;4990619;28;59847;-81
2021/11/06 07:55:55;;;;;;;;;44.75;40.00;;;;;5.47;70.77;102860.59;4990938;28;68136;-82
2021/11/06 07:58:21;;;;;;;;;39.75;34.00;;;;;5.54;71.04;102856.91;4987186;28;46683;-82
2021/11/06 08:00:46;;;;;;;;;38.75;35.25;;;;;5.62;70.63;102856.78;4990454;28;45651;-83
2021/11/06 08:03:12;;;;;;;;;37.00;34.00;;;;;5.73;70.98;102871.81;4989832;28;63890;-82
2021/11/06 08:05:37;;;;;;;;;48.00;40.75;;;;;5.80;71.15;102855.06;4991250;28;63275;-82
2021/11/06 08:08:03;;;;;;;;;43.50;39.25;;;;;5.87;71.07;102857.53;4991996;28;49154;-82
2021/11/06 08:10:28;;;;;;;;;45.50;40.25;;;;;5.96;70.82;102862.72;4989110;28;45472;-81
2021/11/06 08:13:01;;;;;;;;;39.75;33.00;;;;;6.00;70.77;102867.50;4991987;28;61803;-81
2021/11/06 08:15:27;;;;;;;;;34.75;34.75;;;;;6.09;70.73;102866.56;4958188;28;45399;-81
2021/11/06 08:17:53;;;;;;;;;42.25;34.25;;;;;6.11;71.21;102858.13;5000334;28;46480;-82
2021/11/06 08:20:19;;;;;;;;;40.00;33.50;;;;;6.23;70.84;102867.94;4975643;28;45315;-82
2021/11/06 08:22:44;;;;;;;;;40.75;38.50;;;;;6.28;71.16;102856.28;4990246;28;45461;-82
2021/11/06 08:25:15;;;;;;;;;38.00;36.00;;;;;6.35;70.79;102857.78;4974531;28;45475;-83
2021/11/06 08:27:40;;;;;;;;;44.50;36.00;;;;;6.45;70.29;102865.72;4988667;28;45645;-82
2021/11/06 08:30:06;;;;;;;;;40.75;33.00;;;;;6.49;70.46;102848.69;4998237;28;45468;-83
2021/11/06 08:32:31;;;;;;;;;38.75;35.00;;;;;6.54;70.37;102851.72;4974243;28;46120;-84
2021/11/06 08:34:57;;;;;;;;;44.00;36.75;;;;;6.60;70.28;102857.53;4995370;28;45429;-84
2021/11/06 08:37:22;;;;;;;;;47.50;41.00;;;;;6.65;70.46;102844.94;4983281;28;45896;-83
2021/11/06 08:39:47;;;;;;;;;34.50;30.50;;;;;6.73;69.24;102848.25;4995146;28;68459;-83
2021/11/06 08:42:13;;;;;;;;;43.25;38.75;;;;;6.77;69.44;102847.78;5001111;28;45499;-84
2021/11/06 08:44:39;;;;;;;;;40.00;36.75;;;;;6.88;70.30;102839.25;4989765;28;45331;-84
2021/11/06 08:47:04;;;;;;;;;39.00;32.75;;;;;6.98;70.44;102843.69;4992535;28;45583;-85
2021/11/06 08:49:29;;;;;;;;;29.25;26.25;;;;;7.13;70.19;102840.66;4986885;28;72190;-85
2021/11/06 08:51:58;;;;;;;;;31.75;28.00;;;;;7.28;70.07;102848.09;4989772;28;45692;-83
2021/11/06 08:54:23;;;;;;;;;33.00;28.25;;;;;7.37;70.01;102847.25;4979979;28;45513;-82
2021/11/06 08:56:49;;;;;;;;;29.50;26.00;;;;;7.48;69.54;102858.69;4988415;28;46075;-83
2021/11/06 08:59:15;;;;;;;;;24.25;22.25;;;;;7.55;68.03;102847.09;4991653;28;45445;-83
2021/11/06 09:01:40;;;;;;;;;29.75;25.75;;;;;7.62;68.82;102848.59;4958059;28;45489;-83
2021/11/06 09:04:06;;;;;;;;;30.75;29.50;;;;;7.75;69.17;102857.56;4972936;28;45436;-83
2021/11/06 09:06:34;;;;;;;;;29.00;27.50;;;;;7.86;69.24;102855.94;4988275;28;45472;-82
2021/11/06 09:09:09;;;;;;;;;27.75;24.25;;;;;7.94;67.37;102849.69;4989269;28;45585;-82
2021/11/06 09:11:36;;;;;;;;;28.00;24.50;;;;;8.01;68.40;102849.47;4991019;28;45460;-82
2021/11/06 09:14:01;;;;;;;;;30.50;26.75;;;;;8.02;68.01;102842.53;4989665;28;45393;-82
2021/11/06 09:16:27;;;;;;;;;34.25;27.50;;;;;8.04;68.36;102847.09;4989394;28;47051;-82
2021/11/06 09:18:53;;;;;;;;;28.50;27.50;;;;;8.13;68.43;102853.97;4991354;28;67280;-82
2021/11/06 09:21:20;;;;;;;;;25.00;23.75;;;;;8.18;68.08;102857.91;4994338;28;45448;-81
2021/11/06 09:23:48;;;;;;;;;23.75;19.25;;;;;8.22;67.84;102852.16;5009036;28;45519;-82
2021/11/06 09:26:14;;;;;;;;;25.25;24.25;;;;;8.26;68.25;102856.91;4968425;28;46299;-82
2021/11/06 09:28:42;;;;;;;;;28.00;24.50;;;;;8.33;68.40;102849.56;4983073;28;45682;-81
2021/11/06 09:31:11;;;;;;;;;28.00;24.25;;;;;8.39;68.35;102850.13;4987622;28;45526;-83
2021/11/06 09:33:38;;;;;;;;;27.50;23.25;;;;;8.42;68.14;102853.03;4987999;28;46077;-82
2021/11/06 09:36:03;;;;;;;;;28.00;24.50;;;;;8.49;66.99;102849.25;4985322;28;46255;-82
2021/11/06 09:38:29;;;;;;;;;30.00;24.25;;;;;8.51;67.08;102847.66;4971464;28;56268;-83
2021/11/06 09:40:59;;;;;;;;;25.25;24.50;;;;;8.55;67.47;102841.94;4980359;28;56186;-82
2021/11/06 09:43:24;;;;;;;;;23.50;22.75;;;;;8.63;67.08;102844.34;4979528;28;45445;-81
2021/11/06 09:45:50;;;;;;;;;21.50;19.50;;;;;8.65;67.39;102838.47;4963871;28;60047;-82
2021/11/06 09:48:16;;;;;;;;;24.75;21.50;;;;;8.69;67.76;102839.63;4981267;28;45548;-82
2021/11/06 09:50:41;;;;;;;;;20.50;19.25;;;;;8.74;67.26;102834.78;4982986;28;45563;-82
2021/11/06 09:53:07;;;;;;;;;21.25;20.50;;;;;8.80;67.25;102836.25;4979272;28;45354;-81
2021/11/06 09:55:32;;;;;;;;;16.00;16.00;;;;;8.85;67.24;102841.88;4962500;28;46380;-81
2021/11/06 09:57:58;;;;;;;;;20.33;16.67;;;;;8.93;66.84;102846.09;4977521;28;45370;-81
2021/11/06 10:00:24;;;;;;;;;19.75;17.75;;;;;8.98;66.97;102842.94;4976376;28;45734;-81
2021/11/06 10:02:54;;;;;;;;;21.00;20.75;;;;;9.01;67.08;102837.97;4989168;28;45274;-81
2021/11/06 10:05:20;;;;;;;;;24.25;20.75;;;;;9.08;67.08;102842.94;4989200;28;46200;-82
2021/11/06 10:07:45;;;;;;;;;22.50;20.75;;;;;9.13;66.84;102843.31;4957140;28;53376;-82
2021/11/06 10:10:15;;;;;;;;;23.50;20.75;;;;;9.16;66.25;102839.28;4963205;28;45488;-82
2021/11/06 10:12:43;;;;;;;;;24.00;18.75;;;;;9.22;66.29;102841.50;4961824;28;45481;-82
2021/11/06 10:15:09;;;;;;;;;18.00;16.33;;;;;9.25;65.62;102830.38;4990626;28;46236;-82
2021/11/06 10:17:35;;;;;;;;;17.00;14.67;;;;;9.30;64.63;102833.38;4988939;28;45558;-82
2021/11/06 10:20:40;;;;;;;;;15.33;14.67;;;;;9.36;63.98;102826.94;4964418;28;45433;-82
2021/11/06 10:23:07;;;;;;;;;14.33;13.00;;;;;9.40;63.40;102815.00;4921256;28;45428;-83
2021/11/06 10:25:33;;;;;;;;;13.33;13.00;;;;;9.47;63.87;102817.34;4894175;28;46191;-83
2021/11/06 10:28:03;;;;;;;;;15.33;13.33;;;;;9.55;63.01;102818.00;4913831;28;45322;-83
2021/11/06 10:30:30;;;;;;;;;14.00;12.00;;;;;9.56;64.29;102814.56;4914974;28;45433;-83
2021/11/06 10:33:12;;;;;;;;;11.00;11.00;;;;;9.66;64.08;102817.97;4908686;28;45610;-83
2021/11/06 10:35:43;;;;;;;;;16.67;12.00;;;;;9.66;63.34;102817.97;4888976;28;45571;-84
2021/11/06 10:38:21;;;;;;;;;12.33;10.00;;;;;9.76;63.57;102814.41;4889349;28;45865;-84
2021/11/06 10:40:47;;;;;;;;;12.00;12.00;;;;;9.79;62.36;102806.78;4893208;28;46855;-84
2021/11/06 10:43:14;;;;;;;;;10.67;10.33;;;;;9.86;60.23;102814.34;4897381;28;45616;-84
2021/11/06 10:45:47;;;;;;;;;11.33;11.00;;;;;9.88;61.54;102797.03;4897626;28;45720;-85
2021/11/06 10:48:16;;;;;;;;;12.00;11.00;;;;;9.94;60.14;102800.16;4880693;29;45706;-84
2021/11/06 10:50:45;;;;;;;;;12.00;10.00;;;;;10.03;59.94;102807.84;4892288;28;45600;-82
2021/11/06 10:53:11;;;;;;;;;10.33;10.33;;;;;10.07;59.84;102809.03;4913204;28;45375;-82
2021/11/06 10:55:38;;;;;;;;;9.00;9.00;;;;;10.12;59.96;102810.31;4954519;28;45405;-82
2021/11/06 10:58:23;;;;;;;;;9.67;9.67;;;;;10.16;60.59;102814.09;4956351;28;45606;-83
2021/11/06 11:00:56;;;;;;;;;9.67;9.33;;;;;10.16;60.24;102815.00;4963287;28;45578;-82
2021/11/06 11:03:26;;;;;;;;;7.67;7.33;;;;;10.21;59.65;102817.06;4947030;28;45545;-82
2021/11/06 11:05:52;;;;;;;;;12.67;9.67;;;;;10.24;60.63;102818.25;4964987;28;45501;-82
2021/11/06 11:08:17;;;;;;;;;11.33;7.33;;;;;10.24;59.18;102798.94;4973164;28;45531;-82
2021/11/06 11:10:43;;;;;;;;;9.00;9.00;;;;;10.33;60.06;102812.84;4951534;28;45501;-85
2021/11/06 11:13:22;;;;;;;;;11.33;11.33;;;;;10.36;60.60;102807.81;4970538;28;45715;-85
2021/11/06 11:15:51;;;;;;;;;11.67;9.33;;;;;10.43;60.32;102803.97;4952670;28;51548;-84
2021/11/06 11:18:33;;;;;;;;;10.67;10.67;;;;;10.47;60.66;102808.66;4969796;28;45553;-82
2021/11/06 11:21:11;;;;;;;;;11.67;11.00;;;;;10.54;60.14;102807.47;4964476;28;45432;-82
2021/11/06 11:23:40;;;;;;;;;10.33;8.67;;;;;10.57;58.07;102799.84;4967706;28;45757;-82
2021/11/06 11:26:06;;;;;;;;;11.67;9.33;;;;;10.65;58.06;102796.88;4960656;28;46537;-83
2021/11/06 11:28:31;;;;;;;;;13.00;11.00;;;;;10.67;60.50;102790.97;4965201;28;45738;-83
2021/11/06 11:30:57;;;;;;;;;14.00;11.00;;;;;10.76;58.19;102781.97;4957478;28;45592;-83
2021/11/06 11:33:22;;;;;;;;;12.67;11.00;;;;;10.78;58.45;102777.75;4948351;28;67714;-83
2021/11/06 11:35:49;;;;;;;;;10.33;9.00;;;;;10.86;58.72;102775.72;4951775;28;45963;-83
2021/11/06 11:38:14;;;;;;;;;11.33;10.00;;;;;10.92;58.72;102766.63;4971183;28;45405;-82
2021/11/06 11:40:42;;;;;;;;;16.00;11.67;;;;;10.98;58.33;102749.47;4934484;28;53158;-82
2021/11/06 11:43:17;;;;;;;;;12.00;8.00;;;;;11.07;58.85;102755.44;4949644;28;45649;-83
2021/11/06 11:45:50;;;;;;;;;11.67;11.00;;;;;11.12;57.90;102753.16;4955457;28;50161;-83
2021/11/06 11:48:23;;;;;;;;;9.00;8.67;;;;;11.16;55.60;102745.59;4932591;28;46019;-85
2021/11/06 11:50:48;;;;;;;;;11.00;10.67;;;;;11.20;57.06;102737.94;4934300;28;45473;-84
2021/11/06 11:53:28;;;;;;;;;12.67;12.00;;;;;11.27;57.18;102738.53;4971786;28;45830;-84
2021/11/06 11:55:55;;;;;;;;;10.00;10.00;;;;;11.40;57.69;102744.69;4966565;28;45390;-84
2021/11/06 11:58:25;;;;;;;;;9.67;9.00;;;;;11.39;56.80;102733.25;4952511;28;45556;-84
2021/11/06 12:00:53;;;;;;;;;11.00;8.67;;;;;11.43;54.81;102742.31;4950137;28;45534;-82
2021/11/06 12:03:26;;;;;;;;;12.33;12.00;;;;;11.39;57.13;102729.75;4961892;28;45615;-84
2021/11/06 12:05:52;;;;;;;;;9.67;9.67;;;;;11.41;57.48;102746.53;4958611;28;45534;-84
2021/11/06 12:08:20;;;;;;;;;9.00;7.33;;;;;11.38;58.61;102739.34;4954321;28;57520;-83
2021/11/06 12:10:59;;;;;;;;;12.00;12.00;;;;;11.30;58.01;102737.84;4966448;28;45476;-84
2021/11/06 12:13:28;;;;;;;;;13.00;12.33;;;;;11.35;57.47;102735.53;4956894;28;45573;-85
2021/11/06 12:16:00;;;;;;;;;10.33;9.00;;;;;11.36;57.01;102721.63;4965342;28;45493;-85
2021/11/06 12:18:34;;;;;;;;;9.00;7.67;;;;;11.40;57.19;102721.03;4944587;28;45399;-83
2021/11/06 12:21:25;;;;;;;;;9.67;8.67;;;;;11.40;57.39;102714.06;4967402;28;50542;-85
2021/11/06 12:24:09;;;;;;;;;11.67;10.33;;;;;11.44;57.13;102715.19;4948109;28;45557;-83
2021/11/06 12:26:42;;;;;;;;;9.00;9.00;;;;;11.44;56.02;102719.56;4965819;28;45451;-84
2021/11/06 12:29:07;;;;;;;;;12.00;9.67;;;;;11.45;57.09;102718.72;4938214;28;45912;-84
2021/11/06 12:31:34;;;;;;;;;13.00;10.33;;;;;11.46;58.24;102718.88;4963933;28;45663;-84
2021/11/06 12:34:03;;;;;;;;;9.67;8.33;;;;;11.42;56.13;102707.97;4942041;28;47438;-82
2021/11/06 12:36:30;;;;;;;;;10.67;8.00;;;;;11.44;55.73;102698.53;4948862;28;46369;-83
2021/11/06 12:38:55;;;;;;;;;8.00;8.00;;;;;11.47;57.28;102702.28;4927641;28;45448;-84
2021/11/06 12:41:36;;;;;;;;;11.00;8.67;;;;;11.47;56.11;102694.38;4972094;28;54420;-84
2021/11/06 12:44:03;;;;;;;;;8.00;8.00;;;;;11.49;56.20;102691.88;4975717;28;45411;-84
2021/11/06 12:46:30;;;;;;;;;12.33;8.67;;;;;11.48;57.05;102679.53;4953426;28;49294;-85
2021/11/06 12:49:03;;;;;;;;;6.33;6.33;;;;;11.55;57.51;102686.13;4969653;28;45512;-84
2021/11/06 12:51:41;;;;;;;;;9.00;9.00;;;;;11.55;56.09;102680.88;4939312;28;45592;-85
2021/11/06 12:54:08;;;;;;;;;7.00;7.00;;;;;11.57;56.06;102672.28;4949304;28;46043;-84
2021/11/06 12:56:39;;;;;;;;;10.67;9.33;;;;;11.65;56.37;102672.84;4951175;28;45695;-84
2021/11/06 12:59:10;;;;;;;;;8.33;8.33;;;;;11.61;57.57;102671.72;4943839;28;45571;-83
2021/11/06 13:01:43;;;;;;;;;7.33;6.00;;;;;11.62;56.76;102670.91;4968298;28;45701;-84
2021/11/06 13:04:16;;;;;;;;;11.67;8.00;;;;;11.66;57.21;102674.69;4952339;28;45459;-83
2021/11/06 13:06:43;;;;;;;;;9.33;7.00;;;;;11.68;56.92;102665.19;4957603;28;45532;-83
2021/11/06 13:09:20;;;;;;;;;8.00;5.33;;;;;11.75;57.84;102661.25;4976564;28;50134;-83
2021/11/06 13:11:49;;;;;;;;;8.00;8.00;;;;;11.77;57.40;102656.13;4958821;28;45611;-84
2021/11/06 13:14:33;;;;;;;;;8.00;7.33;;;;;11.80;57.78;102661.63;4972106;28;45510;-84
2021/11/06 13:17:08;;;;;;;;;8.00;7.00;;;;;11.86;56.02;102656.78;4940672;28;47189;-85
2021/11/06 13:19:37;;;;;;;;;13.00;8.00;;;;;11.90;57.40;102647.38;4970280;28;45649;-85
2021/11/06 13:22:03;;;;;;;;;9.33;8.33;;;;;11.90;57.30;102644.75;4964884;28;45564;-84
2021/11/06 13:24:53;;;;;;;;;5.33;4.33;;;;;11.93;57.51;102631.81;4954393;28;45746;-84
2021/11/06 13:27:37;;;;;;;;;5.00;4.00;;;;;11.97;55.74;102628.59;4967169;28;46307;-84
2021/11/06 13:30:37;;;;;;;;;6.67;4.67;;;;;12.07;55.10;102617.91;4970492;28;45409;-84
2021/11/06 13:33:11;;;;;;;;;8.33;6.33;;;;;12.21;55.74;102615.34;4953260;28;45441;-84
2021/11/06 13:35:41;;;;;;;;;6.67;6.00;;;;;12.37;53.98;102605.88;4972040;28;45436;-84
2021/11/06 13:38:27;;;;;;;;;9.00;6.00;;;;;12.51;53.43;102605.06;4969785;28;46489;-85
2021/11/06 13:41:02;;;;;;;;;7.67;4.00;;;;;12.71;54.57;102600.22;4969490;28;45478;-84
2021/11/06 13:43:35;;;;;;;;;7.00;4.00;;;;;12.83;53.68;102597.47;4952129;28;45614;-84
2021/11/06 13:46:20;;;;;;;;;5.33;5.33;;;;;12.89;53.23;102588.13;4944572;28;45425;-84
2021/11/06 13:49:00;;;;;;;;;4.00;3.00;;;;;12.85;53.69;102584.41;4964759;28;46564;-85
2021/11/06 13:51:26;;;;;;;;;5.33;5.33;;;;;12.89;53.18;102582.88;4953282;28;45402;-85
2021/11/06 13:53:57;;;;;;;;;7.00;4.33;;;;;12.88;54.02;102581.97;4960017;28;45443;-85
2021/11/06 13:56:26;;;;;;;;;5.33;5.33;;;;;12.83;53.31;102572.88;4956625;28;45608;-84
2021/11/06 13:58:56;;;;;;;;;7.00;5.33;;;;;12.80;53.03;102577.94;4951100;28;46554;-84
2021/11/06 14:01:25;;;;;;;;;7.00;7.00;;;;;12.76;53.74;102578.50;4938736;28;45426;-83
2021/11/06 14:03:51;;;;;;;;;9.00;5.33;;;;;12.68;53.04;102562.22;4954503;28;45569;-84
2021/11/06 14:06:16;;;;;;;;;8.00;7.00;;;;;12.63;52.77;102564.53;4955280;28;45407;-85
2021/11/06 14:08:42;;;;;;;;;5.67;3.00;;;;;12.59;53.18;102565.16;4971332;28;46045;-84
2021/11/06 14:11:07;;;;;;;;;5.33;5.33;;;;;12.57;54.35;102561.50;4933246;28;46183;-86
2021/11/06 14:13:34;;;;;;;;;5.67;5.67;;;;;12.52;52.41;102558.56;4971798;28;45497;-86
2021/11/06 14:16:11;;;;;;;;;5.33;3.00;;;;;12.47;53.70;102560.00;4970870;28;45636;-89
2021/11/06 14:18:42;;;;;;;;;3.00;3.00;;;;;12.45;53.25;102564.22;4953910;28;46169;-85
2021/11/06 14:21:20;;;;;;;;;7.00;4.00;;;;;12.41;54.66;102557.84;4953464;28;45944;-85
2021/11/06 14:23:46;;;;;;;;;5.33;5.33;;;;;12.43;53.27;102558.84;4971854;28;45308;-86
2021/11/06 14:26:18;;;;;;;;;5.33;4.00;;;;;12.42;54.85;102570.19;4954614;28;45542;-84
2021/11/06 14:28:51;;;;;;;;;3.00;3.00;;;;;12.29;55.13;102553.56;4958500;28;45727;-84
2021/11/06 14:31:30;;;;;;;;;5.00;5.00;;;;;12.29;54.70;102550.94;4953390;28;45851;-85
2021/11/06 14:33:56;;;;;;;;;8.00;7.00;;;;;12.33;55.29;102549.44;4968319;28;46345;-85
2021/11/06 14:36:23;;;;;;;;;6.00;4.00;;;;;12.33;53.57;102552.06;4973908;28;45610;-86
2021/11/06 14:38:49;;;;;;;;;7.00;4.00;;;;;12.39;54.91;102555.13;4972892;28;46262;-85
2021/11/06 14:41:14;;;;;;;;;4.00;4.00;;;;;12.37;54.03;102546.19;4994609;28;45826;-86
2021/11/06 14:43:58;;;;;;;;;2.33;2.33;;;;;12.34;53.95;102531.91;4957411;28;45654;-83
2021/11/06 14:46:24;;;;;;;;;6.67;4.00;;;;;12.29;55.71;102521.97;4984868;28;45604;-83
2021/11/06 14:48:54;;;;;;;;;4.00;4.00;;;;;12.33;55.59;102535.34;4989127;28;45490;-83
2021/11/06 14:51:19;;;;;;;;;5.00;5.00;;;;;12.36;56.47;102535.56;4957901;28;45413;-85
2021/11/06 14:53:55;;;;;;;;;7.00;7.00;;;;;12.36;56.46;102538.19;4958464;28;46121;-85
2021/11/06 14:56:39;;;;;;;;;7.00;7.00;;;;;12.37;56.21;102545.31;4975794;28;45555;-85
2021/11/06 14:59:05;;;;;;;;;9.33;9.00;;;;;12.38;55.04;102534.84;4992189;28;46442;-84
2021/11/06 15:01:31;;;;;;;;;9.67;9.33;;;;;12.37;54.71;102540.03;4977086;28;45381;-87
2021/11/06 15:04:00;;;;;;;;;12.00;10.00;;;;;12.36;55.15;102546.09;4961906;28;45719;-84
2021/11/06 15:06:26;;;;;;;;;11.00;7.67;;;;;12.32;55.13;102537.06;4965113;28;45561;-85
2021/11/06 15:08:51;;;;;;;;;8.67;8.67;;;;;12.34;56.09;102545.09;4977092;28;45619;-84
2021/11/06 15:11:18;;;;;;;;;7.33;7.33;;;;;12.30;56.02;102536.06;4961446;28;45701;-83
2021/11/06 15:13:46;;;;;;;;;9.00;8.00;;;;;12.34;56.68;102543.38;4992835;28;45496;-83
2021/11/06 15:16:11;;;;;;;;;7.00;7.00;;;;;12.32;57.06;102538.81;4993587;28;45357;-84
2021/11/06 15:18:37;;;;;;;;;4.33;4.00;;;;;12.32;57.23;102541.44;4988545;28;74725;-85
2021/11/06 15:21:04;;;;;;;;;8.33;7.00;;;;;12.29;57.66;102545.66;4971046;28;72491;-83
2021/11/06 15:23:29;;;;;;;;;8.00;6.67;;;;;12.27;56.52;102544.66;4952020;28;45534;-82
2021/11/06 15:25:55;;;;;;;;;6.67;6.67;;;;;12.24;57.08;102535.66;4971780;28;45467;-83
2021/11/06 15:28:21;;;;;;;;;8.00;6.33;;;;;12.21;56.45;102533.72;4973403;28;45417;-83
2021/11/06 15:30:47;;;;;;;;;8.00;6.33;;;;;12.22;57.04;102534.63;4989506;28;45659;-84
2021/11/06 15:33:14;;;;;;;;;9.00;7.67;;;;;12.19;56.94;102532.69;4981281;28;45741;-84
2021/11/06 15:35:39;;;;;;;;;8.00;8.00;;;;;12.14;56.42;102520.94;4955301;28;45734;-84
2021/11/06 15:38:05;;;;;;;;;7.00;7.00;;;;;12.14;56.79;102528.84;4953145;28;55912;-84
2021/11/06 15:40:31;;;;;;;;;9.00;5.00;;;;;12.14;57.67;102540.28;4969072;28;45377;-84
2021/11/06 15:42:57;;;;;;;;;7.67;7.33;;;;;12.07;56.81;102531.03;4970833;28;45623;-84
2021/11/06 15:45:24;;;;;;;;;6.33;4.33;;;;;12.03;58.30;102529.00;4955065;28;45427;-83
2021/11/06 15:47:49;;;;;;;;;6.33;4.00;;;;;11.96;57.18;102524.09;4955334;28;48322;-83
2021/11/06 15:50:16;;;;;;;;;5.00;5.00;;;;;11.91;56.43;102530.78;4984421;28;65863;-84
2021/11/06 15:52:41;;;;;;;;;4.67;4.67;;;;;11.90;57.40;102526.34;4980384;28;45459;-84
2021/11/06 15:55:09;;;;;;;;;3.33;3.00;;;;;11.88;57.79;102530.59;4972707;28;45479;-83
2021/11/06 15:57:35;;;;;;;;;5.67;3.67;;;;;11.84;58.07;102517.22;4957381;28;48262;-84
2021/11/06 16:00:00;;;;;;;;;8.00;4.00;;;;;11.81;57.92;102505.56;4954886;28;52409;-84
2021/11/06 16:02:29;;;;;;;;;5.67;5.67;;;;;11.75;58.43;102500.78;4978034;28;61734;-84
2021/11/06 16:04:54;;;;;;;;;4.00;4.00;;;;;11.72;58.31;102495.31;4972964;28;45373;-85
2021/11/06 16:07:20;;;;;;;;;6.00;5.67;;;;;11.68;56.72;102498.53;4970487;28;51858;-84
2021/11/06 16:09:46;;;;;;;;;5.67;4.33;;;;;11.64;58.21;102493.88;4970515;28;45452;-85
2021/11/06 16:12:11;;;;;;;;;7.33;6.00;;;;;11.59;58.66;102497.13;4967529;28;46176;-84
2021/11/06 16:14:36;;;;;;;;;4.33;4.00;;;;;11.53;59.18;102494.03;4934743;28;45830;-84
2021/11/06 16:17:07;;;;;;;;;7.00;7.00;;;;;11.54;57.75;102503.78;4933166;28;73981;-84
2021/11/06 16:19:32;;;;;;;;;4.00;4.00;;;;;11.49;59.14;102506.06;4970337;28;45545;-84
2021/11/06 16:22:03;;;;;;;;;6.00;3.33;;;;;11.48;59.14;102504.25;4968040;28;46047;-84
2021/11/06 16:24:28;;;;;;;;;5.00;5.00;;;;;11.40;59.39;102479.13;4950257;28;45886;-84
2021/11/06 16:26:54;;;;;;;;;7.00;6.00;;;;;11.41;59.65;102494.09;4970899;28;54941;-84
2021/11/06 16:29:19;;;;;;;;;8.00;7.00;;;;;11.40;59.60;102493.19;4953393;28;54930;-84
2021/11/06 16:31:45;;;;;;;;;7.00;7.00;;;;;11.35;59.77;102489.31;4970597;28;65067;-84
2021/11/06 16:34:10;;;;;;;;;7.33;7.00;;;;;11.31;59.35;102476.78;4954667;28;45431;-85
2021/11/06 16:36:36;;;;;;;;;7.33;7.33;;;;;11.29;58.26;102473.09;4954244;28;46152;-84
2021/11/06 16:39:01;;;;;;;;;8.33;7.33;;;;;11.27;57.54;102472.09;4984173;28;45465;-83
2021/11/06 16:41:26;;;;;;;;;8.00;6.33;;;;;11.25;58.27;102474.63;4959756;28;63331;-84
2021/11/06 16:43:52;;;;;;;;;6.00;6.00;;;;;11.25;57.83;102473.69;4958129;28;45574;-84
2021/11/06 16:46:17;;;;;;;;;4.00;4.00;;;;;11.26;57.37;102473.81;4974144;28;51289;-84
2021/11/06 16:48:43;;;;;;;;;6.00;6.00;;;;;11.25;58.68;102463.19;4940375;28;47182;-85
2021/11/06 16:51:10;;;;;;;;;6.33;5.33;;;;;11.23;58.85;102462.19;4975880;28;45545;-86
2021/11/06 16:53:35;;;;;;;;;6.33;6.00;;;;;11.18;59.42;102457.47;4979723;28;45513;-84
2021/11/06 16:56:01;;;;;;;;;7.00;7.00;;;;;11.21;57.67;102461.16;4967622;28;46259;-85
2021/11/06 16:58:27;;;;;;;;;7.00;7.00;;;;;11.17;57.79;102453.06;4988437;28;45437;-85
2021/11/06 17:00:52;;;;;;;;;9.00;6.67;;;;;11.15;59.23;102452.03;4998332;28;45361;-86
2021/11/06 17:03:18;;;;;;;;;6.00;6.00;;;;;11.13;59.51;102460.63;4975446;28;60378;-84
2021/11/06 17:05:44;;;;;;;;;7.00;7.00;;;;;11.13;57.78;102460.63;4955965;28;45665;-84
2021/11/06 17:10:45;;;;;;;;;9.00;6.00;;;;;11.12;57.49;102462.31;4973304;28;45768;-85
2021/11/06 17:13:11;;;;;;;;;9.00;6.67;;;;;11.12;58.67;102470.22;4970939;28;47628;-84
2021/11/06 17:15:37;;;;;;;;;11.00;6.33;;;;;11.07;58.96;102468.97;4969281;28;75450;-85
2021/11/06 17:18:02;;;;;;;;;7.00;7.00;;;;;11.01;59.53;102479.03;4953159;28;45521;-85
2021/11/06 17:20:28;;;;;;;;;14.00;8.00;;;;;11.03;59.47;102496.72;4967587;28;45733;-85
2021/11/06 17:22:54;;;;;;;;;9.00;9.00;;;;;11.00;59.01;102496.53;4971550;28;70222;-84
2021/11/06 17:25:19;;;;;;;;;8.33;7.33;;;;;11.02;59.52;102507.16;4971731;28;45509;-83
2021/11/06 17:27:44;;;;;;;;;10.67;8.00;;;;;11.00;59.36;102506.13;4976661;28;71712;-84
2021/11/06 17:30:15;;;;;;;;;13.33;9.00;;;;;10.97;59.10;102509.44;4959677;28;45430;-84
2021/11/06 17:32:41;;;;;;;;;11.33;9.33;;;;;10.98;58.83;102507.75;4972671;28;45626;-84
2021/11/06 17:35:08;;;;;;;;;8.67;8.67;;;;;11.02;59.62;102523.84;4958085;28;45467;-85
2021/11/06 17:37:33;;;;;;;;;8.00;8.00;;;;;11.03;60.22;102519.50;4971122;28;47106;-85
2021/11/06 17:39:58;;;;;;;;;8.00;8.00;;;;;11.08;60.45;102519.81;4952125;28;52482;-84
2021/11/06 17:42:24;;;;;;;;;8.33;8.00;;;;;11.05;60.71;102500.41;4972264;28;62798;-84
2021/11/06 17:44:50;;;;;;;;;8.67;8.00;;;;;11.05;60.24;102505.66;4971903;28;45608;-85
2021/11/06 17:47:16;;;;;;;;;11.67;11.33;;;;;11.04;59.61;102509.09;4975305;28;45489;-84
2021/11/06 17:49:47;;;;;;;;;10.67;10.00;;;;;10.98;59.84;102513.88;4955975;28;46033;-84
2021/11/06 17:52:25;;;;;;;;;11.67;9.33;;;;;11.08;60.23;102535.59;4952445;28;45676;-85
2021/11/06 17:54:51;;;;;;;;;10.33;9.67;;;;;11.06;60.03;102520.59;4972273;28;46927;-86
2021/11/06 17:57:16;;;;;;;;;12.00;9.33;;;;;11.05;59.43;102496.88;4957099;28;45575;-88
2021/11/06 17:59:42;;;;;;;;;13.33;12.00;;;;;10.99;59.03;102484.19;4954391;28;45315;-85
2021/11/06 18:02:07;;;;;;;;;18.00;13.67;;;;;10.99;60.20;102481.56;4956827;28;60684;-84
2021/11/06 18:04:33;;;;;;;;;17.67;14.00;;;;;10.91;60.46;102480.09;4972437;28;51165;-84
2021/11/06 18:06:58;;;;;;;;;13.67;13.67;;;;;10.84;60.43;102487.53;4968834;28;49455;-85
2021/11/06 18:09:24;;;;;;;;;11.33;10.67;;;;;10.82;59.80;102467.22;4975543;28;45288;-89
2021/11/06 18:11:50;;;;;;;;;13.00;13.00;;;;;10.81;60.20;102475.88;4929690;28;45428;-85
2021/11/06 18:14:16;;;;;;;;;14.33;12.00;;;;;10.79;60.33;102472.25;4953691;28;45461;-85
2021/11/06 18:16:41;;;;;;;;;15.33;14.33;;;;;10.75;60.92;102468.47;4971314;28;45548;-85
2021/11/06 18:19:06;;;;;;;;;13.00;11.67;;;;;10.71;60.98;102467.34;4956699;28;45716;-85
2021/11/06 18:21:32;;;;;;;;;13.00;12.00;;;;;10.64;60.96;102458.91;4971142;28;53569;-85
2021/11/06 18:23:58;;;;;;;;;14.33;14.33;;;;;10.60;61.02;102457.75;4960684;28;45965;-85
2021/11/06 18:26:23;;;;;;;;;12.33;11.67;;;;;10.57;61.38;102445.31;4955323;28;45623;-85
2021/11/06 18:28:49;;;;;;;;;14.00;12.67;;;;;10.53;61.57;102448.53;4968260;28;60192;-85
2021/11/06 18:31:14;;;;;;;;;12.33;12.33;;;;;10.51;60.07;102442.28;4954765;28;66017;-85
2021/11/06 18:33:39;;;;;;;;;14.00;13.67;;;;;10.49;60.71;102443.81;4969012;28;66557;-85
2021/11/06 18:36:06;;;;;;;;;17.33;13.00;;;;;10.46;60.97;102438.34;4958115;28;52504;-85
2021/11/06 18:38:31;;;;;;;;;20.00;15.00;;;;;10.44;61.09;102439.94;4971158;28;45704;-86
2021/11/06 18:40:57;;;;;;;;;19.00;14.67;;;;;10.41;61.64;102442.34;4961484;28;46292;-85
2021/11/06 18:43:23;;;;;;;;;14.33;13.67;;;;;10.36;61.64;102442.91;4950698;28;45972;-84
2021/11/06 18:45:50;;;;;;;;;14.33;13.33;;;;;10.30;61.37;102447.72;4970821;28;45331;-85
2021/11/06 18:48:20;;;;;;;;;17.33;17.00;;;;;10.32;61.71;102447.81;4947157;28;45544;-84
2021/11/06 18:50:46;;;;;;;;;14.33;14.00;;;;;10.32;62.03;102451.38;4972705;28;45282;-84
2021/11/06 18:53:11;;;;;;;;;16.67;15.00;;;;;10.28;62.21;102444.09;4973675;28;45413;-86
2021/11/06 18:55:37;;;;;;;;;16.67;16.00;;;;;10.25;62.24;102442.16;4951412;28;45500;-84
2021/11/06 18:58:02;;;;;;;;;18.00;17.00;;;;;10.26;61.45;102449.19;4956923;28;45552;-86
2021/11/06 19:00:28;;;;;;;;;17.33;15.00;;;;;10.23;62.36;102443.72;4952909;28;45747;-86